sensor_id;sensor_type;location;lat;lon;timestamp;P1;durP1;ratioP1;P2;durP2;ratioP2
51312;SDS011;37397;53.226;10.400;2023-07-31T00:01:56;4.13;;;1.58;;
51312;SDS011;37397;53.226;10.400;2023-07-31T00:04:22;4.20;;;1.80;;
51312;SDS011;37397;53.226;10.400;2023-07-31T00:06:48;4.50;;;1.73;;
51312;SDS011;37397;53.226;10.400;2023-07-31T00:09:15;6.55;;;2.40;;
51312;SDS011;37397;53.226;10.400;2023-07-31T00:11:42;5.18;;;1.65;;
51312;SDS011;37397;53.226;10.400;2023-07-31T00:14:08;5.25;;;1.88;;
51312;SDS011;37397;53.226;10.400;2023-07-31T00:16:35;4.50;;;1.88;;
51312;SDS011;37397;53.226;10.400;2023-07-31T00:19:02;4.57;;;1.70;;
51312;SDS011;37397;53.226;10.400;2023-07-31T00:21:28;5.28;;;1.63;;
51312;SDS011;37397;53.226;10.400;2023-07-31T00:23:55;6.82;;;1.67;;
51312;SDS011;37397;53.226;10.400;2023-07-31T00:26:21;7.60;;;2.10;;
51312;SDS011;37397;53.226;10.400;2023-07-31T00:28:48;4.82;;;1.98;;
51312;SDS011;37397;53.226;10.400;2023-07-31T00:31:14;5.38;;;1.88;;
51312;SDS011;37397;53.226;10.400;2023-07-31T00:33:41;5.32;;;2.40;;
51312;SDS011;37397;53.226;10.400;2023-07-31T00:36:07;5.80;;;2.10;;
51312;SDS011;37397;53.226;10.400;2023-07-31T00:38:34;5.47;;;1.70;;
51312;SDS011;37397;53.226;10.400;2023-07-31T00:41:00;5.07;;;2.08;;
51312;SDS011;37397;53.226;10.400;2023-07-31T00:43:27;5.30;;;1.77;;
51312;SDS011;37397;53.226;10.400;2023-07-31T00:45:53;6.30;;;2.13;;
51312;SDS011;37397;53.226;10.400;2023-07-31T00:48:20;5.35;;;2.17;;
51312;SDS011;37397;53.226;10.400;2023-07-31T00:50:47;4.65;;;1.65;;
51312;SDS011;37397;53.226;10.400;2023-07-31T00:53:14;8.07;;;2.25;;
51312;SDS011;37397;53.226;10.400;2023-07-31T00:55:41;5.53;;;1.60;;
51312;SDS011;37397;53.226;10.400;2023-07-31T00:58:08;5.22;;;2.05;;
51312;SDS011;37397;53.226;10.400;2023-07-31T01:00:37;5.78;;;2.03;;
51312;SDS011;37397;53.226;10.400;2023-07-31T01:03:04;6.28;;;2.30;;
51312;SDS011;37397;53.226;10.400;2023-07-31T01:05:46;7.15;;;1.90;;
51312;SDS011;37397;53.226;10.400;2023-07-31T01:11:14;9.23;;;2.40;;
51312;SDS011;37397;53.226;10.400;2023-07-31T01:13:44;6.40;;;2.20;;
51312;SDS011;37397;53.226;10.400;2023-07-31T01:16:11;9.20;;;2.72;;
51312;SDS011;37397;53.226;10.400;2023-07-31T01:18:38;5.47;;;2.20;;
51312;SDS011;37397;53.226;10.400;2023-07-31T01:21:17;6.70;;;2.25;;
51312;SDS011;37397;53.226;10.400;2023-07-31T01:26:57;8.37;;;3.13;;
51312;SDS011;37397;53.226;10.400;2023-07-31T01:32:09;5.05;;;2.03;;
51312;SDS011;37397;53.226;10.400;2023-07-31T01:34:37;5.68;;;2.53;;
51312;SDS011;37397;53.226;10.400;2023-07-31T01:37:05;6.35;;;2.40;;
51312;SDS011;37397;53.226;10.400;2023-07-31T01:39:31;6.57;;;2.63;;
51312;SDS011;37397;53.226;10.400;2023-07-31T01:41:58;7.38;;;2.58;;
51312;SDS011;37397;53.226;10.400;2023-07-31T01:44:24;4.50;;;2.30;;
51312;SDS011;37397;53.226;10.400;2023-07-31T01:46:51;6.18;;;2.65;;
51312;SDS011;37397;53.226;10.400;2023-07-31T01:49:17;4.03;;;2.13;;
51312;SDS011;37397;53.226;10.400;2023-07-31T01:51:44;8.20;;;2.22;;
51312;SDS011;37397;53.226;10.400;2023-07-31T01:54:10;5.70;;;2.20;;
51312;SDS011;37397;53.226;10.400;2023-07-31T01:56:37;6.28;;;2.33;;
51312;SDS011;37397;53.226;10.400;2023-07-31T01:59:04;6.22;;;2.33;;
51312;SDS011;37397;53.226;10.400;2023-07-31T02:01:31;7.57;;;2.67;;
51312;SDS011;37397;53.226;10.400;2023-07-31T02:03:57;5.45;;;2.22;;
51312;SDS011;37397;53.226;10.400;2023-07-31T02:06:24;4.43;;;2.00;;
51312;SDS011;37397;53.226;10.400;2023-07-31T02:08:51;6.30;;;2.40;;
51312;SDS011;37397;53.226;10.400;2023-07-31T02:11:17;7.97;;;2.75;;
51312;SDS011;37397;53.226;10.400;2023-07-31T02:13:44;5.32;;;2.47;;
51312;SDS011;37397;53.226;10.400;2023-07-31T02:16:10;6.25;;;2.10;;
51312;SDS011;37397;53.226;10.400;2023-07-31T02:18:37;6.80;;;2.72;;
51312;SDS011;37397;53.226;10.400;2023-07-31T02:21:04;7.72;;;2.10;;
51312;SDS011;37397;53.226;10.400;2023-07-31T02:23:31;6.88;;;2.30;;
51312;SDS011;37397;53.226;10.400;2023-07-31T02:25:57;4.10;;;2.13;;
51312;SDS011;37397;53.226;10.400;2023-07-31T02:28:24;5.53;;;2.70;;
51312;SDS011;37397;53.226;10.400;2023-07-31T02:30:51;5.97;;;2.83;;
51312;SDS011;37397;53.226;10.400;2023-07-31T02:33:18;6.07;;;2.60;;
51312;SDS011;37397;53.226;10.400;2023-07-31T02:35:45;7.90;;;2.67;;
51312;SDS011;37397;53.226;10.400;2023-07-31T02:38:12;6.68;;;2.53;;
51312;SDS011;37397;53.226;10.400;2023-07-31T02:40:39;8.57;;;3.03;;
51312;SDS011;37397;53.226;10.400;2023-07-31T02:43:07;5.95;;;2.90;;
51312;SDS011;37397;53.226;10.400;2023-07-31T02:45:35;6.53;;;2.92;;
51312;SDS011;37397;53.226;10.400;2023-07-31T02:48:02;7.32;;;2.80;;
51312;SDS011;37397;53.226;10.400;2023-07-31T02:50:28;6.40;;;3.28;;
51312;SDS011;37397;53.226;10.400;2023-07-31T02:52:55;6.57;;;3.00;;
51312;SDS011;37397;53.226;10.400;2023-07-31T02:55:22;5.75;;;3.10;;
51312;SDS011;37397;53.226;10.400;2023-07-31T02:57:49;7.75;;;3.08;;
51312;SDS011;37397;53.226;10.400;2023-07-31T03:00:15;6.07;;;2.67;;
51312;SDS011;37397;53.226;10.400;2023-07-31T03:02:42;4.90;;;3.28;;
51312;SDS011;37397;53.226;10.400;2023-07-31T03:05:08;8.30;;;3.08;;
51312;SDS011;37397;53.226;10.400;2023-07-31T03:07:35;7.20;;;3.70;;
51312;SDS011;37397;53.226;10.400;2023-07-31T03:10:01;7.65;;;3.33;;
51312;SDS011;37397;53.226;10.400;2023-07-31T03:12:28;7.68;;;3.70;;
51312;SDS011;37397;53.226;10.400;2023-07-31T03:14:54;5.93;;;3.10;;
51312;SDS011;37397;53.226;10.400;2023-07-31T03:17:21;7.53;;;3.63;;
51312;SDS011;37397;53.226;10.400;2023-07-31T03:19:47;7.03;;;3.60;;
51312;SDS011;37397;53.226;10.400;2023-07-31T03:22:14;7.05;;;3.33;;
51312;SDS011;37397;53.226;10.400;2023-07-31T03:24:40;6.93;;;3.45;;
51312;SDS011;37397;53.226;10.400;2023-07-31T03:27:07;7.75;;;3.90;;
51312;SDS011;37397;53.226;10.400;2023-07-31T03:29:33;5.75;;;3.13;;
51312;SDS011;37397;53.226;10.400;2023-07-31T03:32:00;7.35;;;3.58;;
51312;SDS011;37397;53.226;10.400;2023-07-31T03:34:27;5.05;;;3.40;;
51312;SDS011;37397;53.226;10.400;2023-07-31T03:36:53;6.95;;;3.60;;
51312;SDS011;37397;53.226;10.400;2023-07-31T03:39:20;9.05;;;3.30;;
51312;SDS011;37397;53.226;10.400;2023-07-31T03:41:46;7.53;;;3.80;;
51312;SDS011;37397;53.226;10.400;2023-07-31T03:44:13;5.72;;;3.25;;
51312;SDS011;37397;53.226;10.400;2023-07-31T03:46:39;7.57;;;3.75;;
51312;SDS011;37397;53.226;10.400;2023-07-31T03:49:06;6.22;;;3.33;;
51312;SDS011;37397;53.226;10.400;2023-07-31T03:51:33;5.72;;;3.25;;
51312;SDS011;37397;53.226;10.400;2023-07-31T03:54:00;6.78;;;3.70;;
51312;SDS011;37397;53.226;10.400;2023-07-31T03:56:27;7.72;;;3.53;;
51312;SDS011;37397;53.226;10.400;2023-07-31T03:58:53;6.95;;;3.50;;
51312;SDS011;37397;53.226;10.400;2023-07-31T04:01:20;6.10;;;3.40;;
51312;SDS011;37397;53.226;10.400;2023-07-31T04:03:46;4.03;;;2.85;;
51312;SDS011;37397;53.226;10.400;2023-07-31T04:06:13;4.85;;;3.30;;
51312;SDS011;37397;53.226;10.400;2023-07-31T04:08:39;6.05;;;3.53;;
51312;SDS011;37397;53.226;10.400;2023-07-31T04:11:06;5.05;;;3.30;;
51312;SDS011;37397;53.226;10.400;2023-07-31T04:13:32;7.75;;;3.97;;
51312;SDS011;37397;53.226;10.400;2023-07-31T04:16:00;6.80;;;3.58;;
51312;SDS011;37397;53.226;10.400;2023-07-31T04:18:26;6.90;;;3.80;;
51312;SDS011;37397;53.226;10.400;2023-07-31T04:20:53;7.07;;;3.58;;
51312;SDS011;37397;53.226;10.400;2023-07-31T04:23:19;8.73;;;3.60;;
51312;SDS011;37397;53.226;10.400;2023-07-31T04:25:46;6.03;;;3.53;;
51312;SDS011;37397;53.226;10.400;2023-07-31T04:28:12;5.43;;;3.30;;
51312;SDS011;37397;53.226;10.400;2023-07-31T04:30:39;5.20;;;3.47;;
51312;SDS011;37397;53.226;10.400;2023-07-31T04:33:05;6.00;;;3.30;;
51312;SDS011;37397;53.226;10.400;2023-07-31T04:35:32;4.85;;;3.00;;
51312;SDS011;37397;53.226;10.400;2023-07-31T04:37:59;7.40;;;3.78;;
51312;SDS011;37397;53.226;10.400;2023-07-31T04:40:25;6.60;;;3.70;;
51312;SDS011;37397;53.226;10.400;2023-07-31T04:42:52;5.82;;;3.40;;
51312;SDS011;37397;53.226;10.400;2023-07-31T04:45:18;7.85;;;3.70;;
51312;SDS011;37397;53.226;10.400;2023-07-31T04:47:45;4.28;;;3.33;;
51312;SDS011;37397;53.226;10.400;2023-07-31T04:50:11;6.32;;;3.63;;
51312;SDS011;37397;53.226;10.400;2023-07-31T04:52:38;5.25;;;3.53;;
51312;SDS011;37397;53.226;10.400;2023-07-31T04:55:04;6.00;;;3.60;;
51312;SDS011;37397;53.226;10.400;2023-07-31T04:57:31;5.05;;;3.33;;
51312;SDS011;37397;53.226;10.400;2023-07-31T04:59:57;5.47;;;3.53;;
51312;SDS011;37397;53.226;10.400;2023-07-31T05:02:24;6.00;;;3.22;;
51312;SDS011;37397;53.226;10.400;2023-07-31T05:04:51;5.15;;;3.50;;
51312;SDS011;37397;53.226;10.400;2023-07-31T05:07:17;5.80;;;3.25;;
51312;SDS011;37397;53.226;10.400;2023-07-31T05:09:44;6.85;;;3.20;;
51312;SDS011;37397;53.226;10.400;2023-07-31T05:12:10;6.43;;;3.17;;
51312;SDS011;37397;53.226;10.400;2023-07-31T05:14:36;5.43;;;3.42;;
51312;SDS011;37397;53.226;10.400;2023-07-31T05:17:03;5.80;;;3.03;;
51312;SDS011;37397;53.226;10.400;2023-07-31T05:19:30;3.60;;;2.88;;
51312;SDS011;37397;53.226;10.400;2023-07-31T05:21:56;4.60;;;2.90;;
51312;SDS011;37397;53.226;10.400;2023-07-31T05:24:23;4.75;;;3.10;;
51312;SDS011;37397;53.226;10.400;2023-07-31T05:26:49;5.25;;;3.10;;
51312;SDS011;37397;53.226;10.400;2023-07-31T05:29:16;4.30;;;3.00;;
51312;SDS011;37397;53.226;10.400;2023-07-31T05:31:42;4.90;;;2.78;;
51312;SDS011;37397;53.226;10.400;2023-07-31T05:34:09;5.57;;;3.25;;
51312;SDS011;37397;53.226;10.400;2023-07-31T05:36:36;4.32;;;2.97;;
51312;SDS011;37397;53.226;10.400;2023-07-31T05:39:03;4.53;;;2.88;;
51312;SDS011;37397;53.226;10.400;2023-07-31T05:41:33;3.60;;;2.70;;
51312;SDS011;37397;53.226;10.400;2023-07-31T05:44:00;4.25;;;2.55;;
51312;SDS011;37397;53.226;10.400;2023-07-31T05:46:27;3.92;;;2.63;;
51312;SDS011;37397;53.226;10.400;2023-07-31T05:48:53;3.70;;;2.80;;
51312;SDS011;37397;53.226;10.400;2023-07-31T05:51:20;5.90;;;2.80;;
51312;SDS011;37397;53.226;10.400;2023-07-31T05:53:47;3.75;;;2.70;;
51312;SDS011;37397;53.226;10.400;2023-07-31T05:56:13;5.80;;;3.13;;
51312;SDS011;37397;53.226;10.400;2023-07-31T05:58:40;3.22;;;2.50;;
51312;SDS011;37397;53.226;10.400;2023-07-31T06:01:06;3.13;;;2.28;;
51312;SDS011;37397;53.226;10.400;2023-07-31T06:03:33;2.63;;;2.33;;
51312;SDS011;37397;53.226;10.400;2023-07-31T06:06:00;3.50;;;2.35;;
51312;SDS011;37397;53.226;10.400;2023-07-31T06:08:26;3.20;;;2.53;;
51312;SDS011;37397;53.226;10.400;2023-07-31T06:10:53;3.22;;;2.40;;
51312;SDS011;37397;53.226;10.400;2023-07-31T06:13:19;2.90;;;2.30;;
51312;SDS011;37397;53.226;10.400;2023-07-31T06:15:46;2.63;;;2.13;;
51312;SDS011;37397;53.226;10.400;2023-07-31T06:18:12;2.75;;;2.03;;
51312;SDS011;37397;53.226;10.400;2023-07-31T06:20:39;2.10;;;1.85;;
51312;SDS011;37397;53.226;10.400;2023-07-31T06:23:06;2.90;;;2.00;;
51312;SDS011;37397;53.226;10.400;2023-07-31T06:25:33;3.20;;;2.08;;
51312;SDS011;37397;53.226;10.400;2023-07-31T06:27:59;2.38;;;1.90;;
51312;SDS011;37397;53.226;10.400;2023-07-31T06:30:26;2.50;;;2.20;;
51312;SDS011;37397;53.226;10.400;2023-07-31T06:32:52;2.25;;;1.77;;
51312;SDS011;37397;53.226;10.400;2023-07-31T06:35:19;2.72;;;1.67;;
51312;SDS011;37397;53.226;10.400;2023-07-31T06:37:46;2.83;;;1.88;;
51312;SDS011;37397;53.226;10.400;2023-07-31T06:40:12;2.60;;;1.90;;
51312;SDS011;37397;53.226;10.400;2023-07-31T06:42:39;1.63;;;1.50;;
51312;SDS011;37397;53.226;10.400;2023-07-31T06:45:05;2.13;;;1.70;;
51312;SDS011;37397;53.226;10.400;2023-07-31T06:47:33;2.92;;;2.08;;
51312;SDS011;37397;53.226;10.400;2023-07-31T06:49:59;2.03;;;1.70;;
51312;SDS011;37397;53.226;10.400;2023-07-31T06:52:26;4.68;;;1.75;;
51312;SDS011;37397;53.226;10.400;2023-07-31T06:55:02;2.85;;;1.80;;
51312;SDS011;37397;53.226;10.400;2023-07-31T06:57:30;3.42;;;1.67;;
51312;SDS011;37397;53.226;10.400;2023-07-31T06:59:57;2.22;;;1.67;;
51312;SDS011;37397;53.226;10.400;2023-07-31T07:02:23;1.95;;;1.55;;
51312;SDS011;37397;53.226;10.400;2023-07-31T07:04:50;3.78;;;1.80;;
51312;SDS011;37397;53.226;10.400;2023-07-31T07:07:16;6.95;;;2.40;;
51312;SDS011;37397;53.226;10.400;2023-07-31T07:09:43;5.53;;;2.50;;
51312;SDS011;37397;53.226;10.400;2023-07-31T07:12:09;6.40;;;2.15;;
51312;SDS011;37397;53.226;10.400;2023-07-31T07:14:36;6.65;;;2.42;;
51312;SDS011;37397;53.226;10.400;2023-07-31T07:17:03;7.13;;;2.47;;
51312;SDS011;37397;53.226;10.400;2023-07-31T07:19:30;6.13;;;2.20;;
51312;SDS011;37397;53.226;10.400;2023-07-31T07:21:57;3.60;;;2.10;;
51312;SDS011;37397;53.226;10.400;2023-07-31T07:24:23;3.80;;;1.92;;
51312;SDS011;37397;53.226;10.400;2023-07-31T07:26:50;2.33;;;1.50;;
51312;SDS011;37397;53.226;10.400;2023-07-31T07:29:16;3.95;;;1.67;;
51312;SDS011;37397;53.226;10.400;2023-07-31T07:31:43;3.03;;;1.52;;
51312;SDS011;37397;53.226;10.400;2023-07-31T07:34:09;2.58;;;1.50;;
51312;SDS011;37397;53.226;10.400;2023-07-31T07:36:36;2.35;;;1.70;;
51312;SDS011;37397;53.226;10.400;2023-07-31T07:39:04;2.30;;;1.58;;
51312;SDS011;37397;53.226;10.400;2023-07-31T07:41:31;2.60;;;1.63;;
51312;SDS011;37397;53.226;10.400;2023-07-31T07:43:58;2.00;;;1.40;;
51312;SDS011;37397;53.226;10.400;2023-07-31T07:46:24;2.08;;;1.30;;
51312;SDS011;37397;53.226;10.400;2023-07-31T07:48:51;2.28;;;1.40;;
51312;SDS011;37397;53.226;10.400;2023-07-31T07:51:17;2.03;;;1.55;;
51312;SDS011;37397;53.226;10.400;2023-07-31T07:53:44;2.33;;;1.50;;
51312;SDS011;37397;53.226;10.400;2023-07-31T07:56:10;1.63;;;1.30;;
51312;SDS011;37397;53.226;10.400;2023-07-31T07:58:37;1.83;;;1.20;;
51312;SDS011;37397;53.226;10.400;2023-07-31T08:01:03;2.58;;;1.20;;
51312;SDS011;37397;53.226;10.400;2023-07-31T08:03:30;2.95;;;1.42;;
51312;SDS011;37397;53.226;10.400;2023-07-31T08:05:59;2.40;;;1.33;;
51312;SDS011;37397;53.226;10.400;2023-07-31T08:08:27;1.30;;;1.20;;
51312;SDS011;37397;53.226;10.400;2023-07-31T08:10:54;2.30;;;1.02;;
51312;SDS011;37397;53.226;10.400;2023-07-31T08:13:20;1.90;;;1.35;;
51312;SDS011;37397;53.226;10.400;2023-07-31T08:15:47;1.70;;;1.20;;
51312;SDS011;37397;53.226;10.400;2023-07-31T08:18:14;2.30;;;1.65;;
51312;SDS011;37397;53.226;10.400;2023-07-31T08:20:41;1.85;;;1.17;;
51312;SDS011;37397;53.226;10.400;2023-07-31T08:23:07;1.85;;;1.10;;
51312;SDS011;37397;53.226;10.400;2023-07-31T08:25:34;1.73;;;1.13;;
51312;SDS011;37397;53.226;10.400;2023-07-31T08:28:02;1.70;;;1.13;;
51312;SDS011;37397;53.226;10.400;2023-07-31T08:30:29;2.15;;;1.15;;
51312;SDS011;37397;53.226;10.400;2023-07-31T08:32:56;1.13;;;1.00;;
51312;SDS011;37397;53.226;10.400;2023-07-31T08:35:24;1.17;;;1.08;;
51312;SDS011;37397;53.226;10.400;2023-07-31T08:37:51;1.10;;;1.00;;
51312;SDS011;37397;53.226;10.400;2023-07-31T08:40:17;1.58;;;1.23;;
51312;SDS011;37397;53.226;10.400;2023-07-31T08:42:45;1.48;;;1.17;;
51312;SDS011;37397;53.226;10.400;2023-07-31T08:45:13;1.23;;;1.13;;
51312;SDS011;37397;53.226;10.400;2023-07-31T08:47:45;1.17;;;1.05;;
51312;SDS011;37397;53.226;10.400;2023-07-31T08:50:14;0.85;;;0.80;;
51312;SDS011;37397;53.226;10.400;2023-07-31T08:52:42;2.38;;;1.08;;
51312;SDS011;37397;53.226;10.400;2023-07-31T08:55:09;1.17;;;1.08;;
51312;SDS011;37397;53.226;10.400;2023-07-31T08:57:36;1.60;;;1.30;;
51312;SDS011;37397;53.226;10.400;2023-07-31T09:00:04;1.20;;;1.10;;
51312;SDS011;37397;53.226;10.400;2023-07-31T09:02:45;1.50;;;1.10;;
51312;SDS011;37397;53.226;10.400;2023-07-31T09:05:18;1.65;;;1.00;;
51312;SDS011;37397;53.226;10.400;2023-07-31T09:07:46;1.35;;;1.13;;
51312;SDS011;37397;53.226;10.400;2023-07-31T09:10:13;1.10;;;1.00;;
51312;SDS011;37397;53.226;10.400;2023-07-31T09:12:40;0.90;;;0.82;;
51312;SDS011;37397;53.226;10.400;2023-07-31T09:15:07;1.25;;;0.80;;
51312;SDS011;37397;53.226;10.400;2023-07-31T09:17:46;0.80;;;0.80;;
51312;SDS011;37397;53.226;10.400;2023-07-31T09:20:13;1.13;;;0.90;;
51312;SDS011;37397;53.226;10.400;2023-07-31T09:22:47;2.17;;;0.80;;
51312;SDS011;37397;53.226;10.400;2023-07-31T09:25:19;0.93;;;0.80;;
51312;SDS011;37397;53.226;10.400;2023-07-31T09:27:54;1.00;;;0.80;;
51312;SDS011;37397;53.226;10.400;2023-07-31T09:30:24;1.27;;;1.00;;
51312;SDS011;37397;53.226;10.400;2023-07-31T09:32:51;1.25;;;1.05;;
51312;SDS011;37397;53.226;10.400;2023-07-31T09:35:30;1.40;;;0.90;;
51312;SDS011;37397;53.226;10.400;2023-07-31T09:37:59;2.75;;;1.25;;
51312;SDS011;37397;53.226;10.400;2023-07-31T09:40:29;2.35;;;1.30;;
51312;SDS011;37397;53.226;10.400;2023-07-31T09:42:58;3.63;;;1.77;;
51312;SDS011;37397;53.226;10.400;2023-07-31T09:45:27;2.95;;;1.50;;
51312;SDS011;37397;53.226;10.400;2023-07-31T09:48:08;2.58;;;1.60;;
51312;SDS011;37397;53.226;10.400;2023-07-31T09:50:41;4.22;;;2.40;;
51312;SDS011;37397;53.226;10.400;2023-07-31T09:53:08;4.03;;;2.25;;
51312;SDS011;37397;53.226;10.400;2023-07-31T09:55:35;5.25;;;2.60;;
51312;SDS011;37397;53.226;10.400;2023-07-31T09:58:04;5.28;;;2.38;;
51312;SDS011;37397;53.226;10.400;2023-07-31T10:00:32;5.75;;;2.95;;
51312;SDS011;37397;53.226;10.400;2023-07-31T10:02:59;5.72;;;3.40;;
51312;SDS011;37397;53.226;10.400;2023-07-31T10:05:35;7.60;;;3.30;;
51312;SDS011;37397;53.226;10.400;2023-07-31T10:08:04;9.27;;;3.67;;
51312;SDS011;37397;53.226;10.400;2023-07-31T10:10:32;12.00;;;4.53;;
51312;SDS011;37397;53.226;10.400;2023-07-31T10:12:59;7.28;;;3.55;;
51312;SDS011;37397;53.226;10.400;2023-07-31T10:15:27;7.80;;;3.92;;
51312;SDS011;37397;53.226;10.400;2023-07-31T10:17:55;9.15;;;4.55;;
51312;SDS011;37397;53.226;10.400;2023-07-31T10:20:23;9.75;;;4.60;;
51312;SDS011;37397;53.226;10.400;2023-07-31T10:22:51;9.32;;;4.78;;
51312;SDS011;37397;53.226;10.400;2023-07-31T10:25:20;10.25;;;4.97;;
51312;SDS011;37397;53.226;10.400;2023-07-31T10:27:48;10.77;;;5.05;;
51312;SDS011;37397;53.226;10.400;2023-07-31T10:30:15;11.57;;;5.03;;
51312;SDS011;37397;53.226;10.400;2023-07-31T10:32:45;8.90;;;4.97;;
51312;SDS011;37397;53.226;10.400;2023-07-31T10:35:15;80.40;;;11.57;;
51312;SDS011;37397;53.226;10.400;2023-07-31T10:37:43;14.15;;;6.82;;
51312;SDS011;37397;53.226;10.400;2023-07-31T10:40:19;15.30;;;6.63;;
51312;SDS011;37397;53.226;10.400;2023-07-31T10:42:54;15.68;;;6.47;;
51312;SDS011;37397;53.226;10.400;2023-07-31T10:45:33;16.53;;;6.30;;
51312;SDS011;37397;53.226;10.400;2023-07-31T10:48:03;15.52;;;6.22;;
51312;SDS011;37397;53.226;10.400;2023-07-31T10:50:46;14.18;;;6.25;;
51312;SDS011;37397;53.226;10.400;2023-07-31T10:53:24;10.13;;;5.80;;
51312;SDS011;37397;53.226;10.400;2023-07-31T10:56:00;14.20;;;6.28;;
51312;SDS011;37397;53.226;10.400;2023-07-31T10:58:35;12.07;;;6.00;;
51312;SDS011;37397;53.226;10.400;2023-07-31T11:01:03;12.80;;;5.93;;
51312;SDS011;37397;53.226;10.400;2023-07-31T11:03:47;13.02;;;6.07;;
51312;SDS011;37397;53.226;10.400;2023-07-31T11:06:16;10.30;;;5.25;;
51312;SDS011;37397;53.226;10.400;2023-07-31T11:08:48;13.52;;;5.38;;
51312;SDS011;37397;53.226;10.400;2023-07-31T11:11:17;11.77;;;5.78;;
51312;SDS011;37397;53.226;10.400;2023-07-31T11:13:46;11.05;;;5.70;;
51312;SDS011;37397;53.226;10.400;2023-07-31T11:16:16;10.00;;;5.28;;
51312;SDS011;37397;53.226;10.400;2023-07-31T11:18:44;8.95;;;5.30;;
51312;SDS011;37397;53.226;10.400;2023-07-31T11:21:12;10.80;;;5.20;;
51312;SDS011;37397;53.226;10.400;2023-07-31T11:23:40;7.75;;;4.70;;
51312;SDS011;37397;53.226;10.400;2023-07-31T11:26:07;10.50;;;4.70;;
51312;SDS011;37397;53.226;10.400;2023-07-31T11:28:34;9.18;;;4.95;;
51312;SDS011;37397;53.226;10.400;2023-07-31T11:31:02;11.02;;;4.90;;
51312;SDS011;37397;53.226;10.400;2023-07-31T11:33:29;8.18;;;4.30;;
51312;SDS011;37397;53.226;10.400;2023-07-31T11:35:56;9.18;;;4.53;;
51312;SDS011;37397;53.226;10.400;2023-07-31T11:38:23;8.27;;;4.40;;
51312;SDS011;37397;53.226;10.400;2023-07-31T11:40:52;9.20;;;4.30;;
51312;SDS011;37397;53.226;10.400;2023-07-31T11:43:24;8.40;;;4.20;;
51312;SDS011;37397;53.226;10.400;2023-07-31T11:45:53;6.72;;;3.63;;
51312;SDS011;37397;53.226;10.400;2023-07-31T11:48:22;6.70;;;3.75;;
51312;SDS011;37397;53.226;10.400;2023-07-31T11:50:54;7.45;;;3.72;;
51312;SDS011;37397;53.226;10.400;2023-07-31T11:53:27;7.05;;;3.70;;
51312;SDS011;37397;53.226;10.400;2023-07-31T11:55:59;5.63;;;3.15;;
51312;SDS011;37397;53.226;10.400;2023-07-31T11:58:27;5.25;;;2.70;;
51312;SDS011;37397;53.226;10.400;2023-07-31T12:00:55;5.00;;;2.70;;
51312;SDS011;37397;53.226;10.400;2023-07-31T12:03:24;6.03;;;2.92;;
51312;SDS011;37397;53.226;10.400;2023-07-31T12:05:52;4.60;;;2.75;;
51312;SDS011;37397;53.226;10.400;2023-07-31T12:08:23;4.05;;;2.60;;
51312;SDS011;37397;53.226;10.400;2023-07-31T12:10:51;5.43;;;2.50;;
51312;SDS011;37397;53.226;10.400;2023-07-31T12:13:23;3.95;;;2.38;;
51312;SDS011;37397;53.226;10.400;2023-07-31T12:15:56;3.03;;;2.25;;
51312;SDS011;37397;53.226;10.400;2023-07-31T12:18:25;4.40;;;2.40;;
51312;SDS011;37397;53.226;10.400;2023-07-31T12:20:59;4.85;;;2.38;;
51312;SDS011;37397;53.226;10.400;2023-07-31T12:23:27;3.95;;;2.47;;
51312;SDS011;37397;53.226;10.400;2023-07-31T12:26:02;3.30;;;2.30;;
51312;SDS011;37397;53.226;10.400;2023-07-31T12:28:30;4.40;;;2.40;;
51312;SDS011;37397;53.226;10.400;2023-07-31T12:31:01;5.47;;;2.30;;
51312;SDS011;37397;53.226;10.400;2023-07-31T12:33:31;4.38;;;2.15;;
51312;SDS011;37397;53.226;10.400;2023-07-31T12:36:03;4.97;;;2.42;;
51312;SDS011;37397;53.226;10.400;2023-07-31T12:38:33;4.13;;;1.98;;
51312;SDS011;37397;53.226;10.400;2023-07-31T12:41:00;3.38;;;1.80;;
51312;SDS011;37397;53.226;10.400;2023-07-31T12:43:26;2.65;;;2.03;;
51312;SDS011;37397;53.226;10.400;2023-07-31T12:45:56;3.17;;;2.20;;
51312;SDS011;37397;53.226;10.400;2023-07-31T12:48:23;2.75;;;1.92;;
51312;SDS011;37397;53.226;10.400;2023-07-31T12:50:49;3.05;;;2.10;;
51312;SDS011;37397;53.226;10.400;2023-07-31T12:53:16;5.13;;;2.08;;
51312;SDS011;37397;53.226;10.400;2023-07-31T12:55:43;2.50;;;1.83;;
51312;SDS011;37397;53.226;10.400;2023-07-31T12:58:10;2.75;;;2.00;;
51312;SDS011;37397;53.226;10.400;2023-07-31T13:00:36;3.58;;;2.10;;
51312;SDS011;37397;53.226;10.400;2023-07-31T13:03:04;2.35;;;2.00;;
51312;SDS011;37397;53.226;10.400;2023-07-31T13:05:31;2.40;;;1.80;;
51312;SDS011;37397;53.226;10.400;2023-07-31T13:07:58;4.57;;;1.90;;
51312;SDS011;37397;53.226;10.400;2023-07-31T13:10:24;3.17;;;2.10;;
51312;SDS011;37397;53.226;10.400;2023-07-31T13:12:53;4.05;;;2.13;;
51312;SDS011;37397;53.226;10.400;2023-07-31T13:15:19;1.92;;;1.73;;
51312;SDS011;37397;53.226;10.400;2023-07-31T13:17:46;2.63;;;2.13;;
51312;SDS011;37397;53.226;10.400;2023-07-31T13:20:13;2.33;;;1.80;;
51312;SDS011;37397;53.226;10.400;2023-07-31T13:22:40;3.70;;;1.80;;
51312;SDS011;37397;53.226;10.400;2023-07-31T13:25:10;2.80;;;1.90;;
51312;SDS011;37397;53.226;10.400;2023-07-31T13:27:37;3.33;;;2.00;;
51312;SDS011;37397;53.226;10.400;2023-07-31T13:30:04;3.28;;;1.80;;
51312;SDS011;37397;53.226;10.400;2023-07-31T13:32:31;2.08;;;1.70;;
51312;SDS011;37397;53.226;10.400;2023-07-31T13:34:58;2.33;;;1.90;;
51312;SDS011;37397;53.226;10.400;2023-07-31T13:37:24;2.60;;;1.88;;
51312;SDS011;37397;53.226;10.400;2023-07-31T13:39:51;3.78;;;1.88;;
51312;SDS011;37397;53.226;10.400;2023-07-31T13:42:17;3.22;;;1.95;;
51312;SDS011;37397;53.226;10.400;2023-07-31T13:44:44;3.80;;;1.80;;
51312;SDS011;37397;53.226;10.400;2023-07-31T13:47:10;2.67;;;1.60;;
51312;SDS011;37397;53.226;10.400;2023-07-31T13:49:37;2.67;;;1.60;;
51312;SDS011;37397;53.226;10.400;2023-07-31T13:52:05;2.78;;;1.20;;
51312;SDS011;37397;53.226;10.400;2023-07-31T13:54:31;2.47;;;1.58;;
51312;SDS011;37397;53.226;10.400;2023-07-31T13:56:58;2.88;;;1.67;;
51312;SDS011;37397;53.226;10.400;2023-07-31T13:59:24;1.17;;;1.08;;
51312;SDS011;37397;53.226;10.400;2023-07-31T14:01:51;2.70;;;1.50;;
51312;SDS011;37397;53.226;10.400;2023-07-31T14:04:17;2.97;;;1.65;;
51312;SDS011;37397;53.226;10.400;2023-07-31T14:06:44;1.25;;;1.20;;
51312;SDS011;37397;53.226;10.400;2023-07-31T14:09:11;1.50;;;1.40;;
51312;SDS011;37397;53.226;10.400;2023-07-31T14:11:37;2.33;;;1.40;;
51312;SDS011;37397;53.226;10.400;2023-07-31T14:14:08;1.33;;;1.20;;
51312;SDS011;37397;53.226;10.400;2023-07-31T14:16:35;1.40;;;1.30;;
51312;SDS011;37397;53.226;10.400;2023-07-31T14:19:02;1.67;;;1.20;;
51312;SDS011;37397;53.226;10.400;2023-07-31T14:21:29;1.60;;;1.48;;
51312;SDS011;37397;53.226;10.400;2023-07-31T14:23:56;1.90;;;1.23;;
51312;SDS011;37397;53.226;10.400;2023-07-31T14:26:22;1.83;;;1.30;;
51312;SDS011;37397;53.226;10.400;2023-07-31T14:28:49;5.10;;;1.58;;
51312;SDS011;37397;53.226;10.400;2023-07-31T14:31:17;1.95;;;1.50;;
51312;SDS011;37397;53.226;10.400;2023-07-31T14:33:43;2.85;;;1.60;;
51312;SDS011;37397;53.226;10.400;2023-07-31T14:36:10;1.73;;;1.52;;
51312;SDS011;37397;53.226;10.400;2023-07-31T14:38:36;1.75;;;1.60;;
51312;SDS011;37397;53.226;10.400;2023-07-31T14:41:03;3.15;;;1.70;;
51312;SDS011;37397;53.226;10.400;2023-07-31T14:43:29;3.05;;;1.67;;
51312;SDS011;37397;53.226;10.400;2023-07-31T14:45:57;2.53;;;2.10;;